createdAt,value
2023-02-27T00:01:41.714Z,1.23
2023-02-27T00:04:26.835Z,1.15
2023-02-27T00:07:11.665Z,0.90
2023-02-27T00:09:56.644Z,0.50
2023-02-27T00:12:42.847Z,1.00
2023-02-27T00:15:30.643Z,1.10
2023-02-27T00:18:15.828Z,1.15
2023-02-27T00:21:00.768Z,0.93
2023-02-27T00:23:45.774Z,1.00
2023-02-27T00:26:30.825Z,1.25
2023-02-27T00:29:15.644Z,0.85
2023-02-27T00:32:01.053Z,1.20
2023-02-27T00:34:45.885Z,1.17
2023-02-27T00:37:31.190Z,0.90
2023-02-27T00:40:16.632Z,1.20
2023-02-27T00:43:02.979Z,0.93
2023-02-27T00:45:48.867Z,0.75
2023-02-27T00:48:34.007Z,0.93
2023-02-27T00:51:20.150Z,1.10
2023-02-27T00:54:05.328Z,1.02
2023-02-27T00:56:50.006Z,0.93
2023-02-27T00:59:35.072Z,1.10
2023-02-27T01:02:19.900Z,0.90
2023-02-27T01:05:05.522Z,1.00
2023-02-27T01:07:50.227Z,0.90
2023-02-27T01:10:35.458Z,1.00
2023-02-27T01:13:20.393Z,1.10
2023-02-27T01:16:05.681Z,0.85
2023-02-27T01:18:50.293Z,0.70
2023-02-27T01:21:35.341Z,1.02
2023-02-27T01:24:20.396Z,1.10
2023-02-27T01:27:05.444Z,0.88
2023-02-27T01:29:50.567Z,0.93
2023-02-27T01:32:35.603Z,1.10
2023-02-27T01:35:20.591Z,0.90
2023-02-27T01:38:05.733Z,0.95
2023-02-27T01:40:50.980Z,0.70
2023-02-27T01:43:54.698Z,1.10
2023-02-27T01:46:40.266Z,0.70
2023-02-27T01:49:32.445Z,0.73
2023-02-27T01:52:17.625Z,0.77
2023-02-27T01:55:04.632Z,1.13
2023-02-27T01:57:50.908Z,0.60
2023-02-27T02:00:36.096Z,0.90
2023-02-27T02:03:29.909Z,0.90
2023-02-27T02:06:14.831Z,0.90
2023-02-27T02:09:01.197Z,1.02
2023-02-27T02:11:46.826Z,0.70
2023-02-27T02:14:31.872Z,0.80
2023-02-27T02:17:22.524Z,1.35
2023-02-27T02:20:24.894Z,1.02
2023-02-27T02:23:31.850Z,0.77
2023-02-27T02:26:33.513Z,0.68
2023-02-27T02:30:00.893Z,0.87
2023-02-27T02:33:06.194Z,0.68
2023-02-27T02:36:22.282Z,0.80
2023-02-27T02:39:27.193Z,0.70
2023-02-27T02:42:31.082Z,0.70
2023-02-27T02:45:16.157Z,0.47
2023-02-27T02:48:14.065Z,0.77
2023-02-27T02:51:25.612Z,0.93
2023-02-27T02:54:33.810Z,1.00
2023-02-27T02:57:51.613Z,1.23
2023-02-27T03:00:46.439Z,1.03
2023-02-27T03:03:36.910Z,1.00
2023-02-27T03:06:31.061Z,0.98
2023-02-27T03:09:26.903Z,1.05
2023-02-27T03:12:16.310Z,1.15
2023-02-27T03:15:05.803Z,1.10
2023-02-27T03:18:00.254Z,1.10
2023-02-27T03:20:51.405Z,1.25
2023-02-27T03:23:43.254Z,1.10
2023-02-27T03:26:36.410Z,0.90
2023-02-27T03:29:29.790Z,1.23
2023-02-27T03:32:20.225Z,1.52
2023-02-27T03:35:07.280Z,0.85
2023-02-27T03:38:27.823Z,0.93
2023-02-27T03:41:47.161Z,0.98
2023-02-27T03:44:40.008Z,0.93
2023-02-27T03:47:25.197Z,1.10
2023-02-27T03:50:11.234Z,1.27
2023-02-27T03:52:57.188Z,1.05
2023-02-27T03:55:45.411Z,1.27
2023-02-27T03:58:30.433Z,1.23
2023-02-27T04:01:15.737Z,1.30
2023-02-27T04:04:07.264Z,1.30
2023-02-27T04:07:16.325Z,1.10
2023-02-27T04:10:58.642Z,1.38
2023-02-27T04:14:13.897Z,1.60
2023-02-27T04:17:22.829Z,1.60
2023-02-27T04:20:20.474Z,1.50
2023-02-27T04:23:17.133Z,1.70
2023-02-27T04:26:40.864Z,1.50
2023-02-27T04:29:48.277Z,1.50
2023-02-27T04:32:48.097Z,1.10
2023-02-27T04:35:47.785Z,1.00
2023-02-27T04:38:43.483Z,0.90
2023-02-27T04:41:34.489Z,1.08
2023-02-27T04:44:22.584Z,1.20
2023-02-27T04:47:09.487Z,1.30
2023-02-27T04:49:59.105Z,0.95
2023-02-27T04:52:52.301Z,1.17
2023-02-27T04:55:45.997Z,1.52
2023-02-27T04:58:36.383Z,1.33
2023-02-27T05:01:37.604Z,1.13
2023-02-27T05:04:26.098Z,1.40
2023-02-27T05:07:17.628Z,1.10
2023-02-27T05:10:07.224Z,1.17
2023-02-27T05:12:58.353Z,1.10
2023-02-27T05:15:48.495Z,1.35
2023-02-27T05:18:33.695Z,1.23
2023-02-27T05:21:28.772Z,1.42
2023-02-27T05:24:26.089Z,1.27
2023-02-27T05:27:36.271Z,1.50
2023-02-27T05:30:41.156Z,1.20
2023-02-27T05:33:32.121Z,1.20
2023-02-27T05:36:27.810Z,1.48
2023-02-27T05:39:16.716Z,1.23
2023-02-27T05:42:07.045Z,1.50
2023-02-27T05:45:00.490Z,1.70
2023-02-27T05:47:52.748Z,1.30
2023-02-27T05:50:39.932Z,1.77
2023-02-27T05:53:30.128Z,1.60
2023-02-27T05:56:18.656Z,1.20
2023-02-27T05:59:22.058Z,1.73
2023-02-27T06:02:07.348Z,1.55
2023-02-27T06:04:52.204Z,1.70
2023-02-27T06:07:38.035Z,1.98
2023-02-27T06:10:23.324Z,1.53
2023-02-27T06:13:08.656Z,1.70
2023-02-27T06:15:53.770Z,1.90
2023-02-27T06:18:38.769Z,2.00
2023-02-27T06:21:23.486Z,1.60
2023-02-27T06:24:08.643Z,1.33
2023-02-27T06:26:53.597Z,1.58
2023-02-27T06:29:38.730Z,1.48
2023-02-27T06:32:25.510Z,1.65
2023-02-27T06:35:10.304Z,1.55
2023-02-27T06:37:58.358Z,1.70
2023-02-27T06:40:43.721Z,2.17
2023-02-27T06:43:28.968Z,1.70
2023-02-27T06:46:13.902Z,1.88
2023-02-27T06:48:58.950Z,1.70
2023-02-27T06:51:45.033Z,1.60
2023-02-27T06:54:30.305Z,1.80
2023-02-27T06:57:15.179Z,2.25
2023-02-27T07:00:00.292Z,2.88
2023-02-27T07:02:45.270Z,2.78
2023-02-27T07:05:31.368Z,3.10
2023-02-27T07:08:17.482Z,3.03
2023-02-27T07:11:02.581Z,2.50
2023-02-27T07:13:47.513Z,2.30
2023-02-27T07:16:32.749Z,2.10
2023-02-27T07:19:18.447Z,2.13
2023-02-27T07:22:03.678Z,2.03
2023-02-27T07:24:48.591Z,2.20
2023-02-27T07:27:34.061Z,2.00
2023-02-27T07:30:19.534Z,2.03
2023-02-27T07:33:04.970Z,2.40
2023-02-27T07:35:50.010Z,1.95
2023-02-27T07:38:34.994Z,1.45
2023-02-27T07:41:29.861Z,1.80
2023-02-27T07:44:15.987Z,2.00
2023-02-27T07:47:00.768Z,2.00
2023-02-27T07:49:45.553Z,2.13
2023-02-27T07:55:20.586Z,2.00
2023-02-27T07:58:05.719Z,2.30
2023-02-27T08:00:50.664Z,1.87
2023-02-27T08:03:35.975Z,1.85
2023-02-27T08:06:21.236Z,1.75
2023-02-27T08:09:06.193Z,1.30
2023-02-27T08:11:51.184Z,1.75
2023-02-27T08:14:36.260Z,1.80
2023-02-27T08:17:21.113Z,2.33
2023-02-27T08:20:11.616Z,1.75
2023-02-27T08:22:56.802Z,1.40
2023-02-27T08:25:41.968Z,2.25
2023-02-27T08:28:27.733Z,1.43
2023-02-27T08:31:13.493Z,1.98
2023-02-27T08:34:09.558Z,2.90
2023-02-27T08:36:54.891Z,1.38
2023-02-27T08:39:39.607Z,1.77
2023-02-27T08:42:26.793Z,2.53
2023-02-27T08:45:11.791Z,1.60
2023-02-27T08:47:56.521Z,1.60
2023-02-27T08:50:42.711Z,1.00
2023-02-27T08:53:28.243Z,1.65
2023-02-27T08:56:13.642Z,0.93
2023-02-27T08:58:58.843Z,1.27
2023-02-27T09:01:44.595Z,0.50
2023-02-27T09:04:29.739Z,1.40
2023-02-27T09:07:14.577Z,1.20
2023-02-27T09:10:00.204Z,2.10
2023-02-27T09:12:45.110Z,1.08
2023-02-27T09:15:31.716Z,0.73
2023-02-27T09:18:16.736Z,0.30
2023-02-27T09:21:01.823Z,0.85
2023-02-27T09:23:46.783Z,0.13
2023-02-27T09:26:43.441Z,0.40
2023-02-27T09:29:30.957Z,0.30
2023-02-27T09:32:15.997Z,0.60
2023-02-27T09:35:01.294Z,0.30
2023-02-27T09:37:46.610Z,1.27
2023-02-27T09:40:37.626Z,0.65
2023-02-27T09:43:37.947Z,0.90
2023-02-27T09:46:25.524Z,0.90
2023-02-27T09:49:19.034Z,1.00
2023-02-27T09:52:03.865Z,0.83
2023-02-27T09:54:49.126Z,1.10
2023-02-27T09:57:56.217Z,0.90
2023-02-27T10:00:46.925Z,1.40
2023-02-27T10:03:55.048Z,1.13
2023-02-27T10:06:48.456Z,1.00
2023-02-27T10:09:58.178Z,1.15
2023-02-27T10:13:12.587Z,1.33
2023-02-27T10:15:59.570Z,1.05
2023-02-27T10:18:58.018Z,1.05
2023-02-27T10:21:46.752Z,1.30
2023-02-27T10:24:46.829Z,1.52
2023-02-27T10:27:31.920Z,1.33
2023-02-27T10:30:29.226Z,1.00
2023-02-27T10:33:39.800Z,1.50
2023-02-27T10:36:33.749Z,1.40
2023-02-27T10:39:21.333Z,1.42
2023-02-27T10:42:10.572Z,1.10
2023-02-27T10:44:56.119Z,1.10
2023-02-27T10:47:42.066Z,0.85
2023-02-27T10:50:32.596Z,0.40
2023-02-27T10:53:21.780Z,0.73
2023-02-27T10:56:13.384Z,0.90
2023-02-27T10:59:06.287Z,1.08
2023-02-27T11:01:55.999Z,1.00
2023-02-27T11:04:48.563Z,0.90
2023-02-27T11:07:38.839Z,0.95
2023-02-27T11:10:27.055Z,0.40
2023-02-27T11:13:23.042Z,1.00
2023-02-27T11:16:15.559Z,1.10
2023-02-27T11:19:07.568Z,0.93
2023-02-27T11:22:07.488Z,1.05
2023-02-27T11:25:17.131Z,0.73
2023-02-27T11:28:19.764Z,0.90
2023-02-27T11:31:14.870Z,1.00
2023-02-27T11:34:00.965Z,0.97
2023-02-27T11:36:51.435Z,0.70
2023-02-27T11:39:47.340Z,0.70
2023-02-27T11:42:35.071Z,0.90
2023-02-27T11:46:21.588Z,0.80
2023-02-27T11:48:50.824Z,0.80
2023-02-27T11:51:54.450Z,0.90
2023-02-27T11:54:49.197Z,0.80
2023-02-27T11:57:39.180Z,0.60
2023-02-27T12:00:30.996Z,0.60
2023-02-27T12:03:23.151Z,0.70
2023-02-27T12:06:19.301Z,0.60
2023-02-27T12:09:15.380Z,0.65
2023-02-27T12:12:06.041Z,1.10
2023-02-27T12:15:09.712Z,0.70
2023-02-27T12:18:07.886Z,0.30
2023-02-27T12:21:33.432Z,0.60
2023-02-27T12:24:20.926Z,0.50
2023-02-27T12:27:21.118Z,0.50
2023-02-27T12:30:13.169Z,0.50
2023-02-27T12:33:09.412Z,1.87
2023-02-27T12:36:01.354Z,0.68
2023-02-27T12:38:46.331Z,0.70
2023-02-27T12:41:41.615Z,0.50
2023-02-27T12:44:37.956Z,0.43
2023-02-27T12:47:43.886Z,0.40
2023-02-27T12:51:04.571Z,0.68
2023-02-27T12:53:52.668Z,0.40
2023-02-27T12:57:00.696Z,0.45
2023-02-27T13:00:02.101Z,2.85
2023-02-27T13:03:11.970Z,0.40
2023-02-27T13:05:59.104Z,0.55
2023-02-27T13:09:17.812Z,0.28
2023-02-27T13:12:26.100Z,0.57
2023-02-27T13:15:20.719Z,0.70
2023-02-27T13:18:33.622Z,0.57
2023-02-27T13:21:27.970Z,0.43
2023-02-27T13:24:24.252Z,0.68
2023-02-27T13:27:32.295Z,0.40
2023-02-27T13:30:32.647Z,0.35
2023-02-27T13:33:55.203Z,0.70
2023-02-27T13:36:58.583Z,0.40
2023-02-27T13:39:44.354Z,0.50
2023-02-27T13:42:30.444Z,0.52
2023-02-27T13:45:48.835Z,0.45
2023-02-27T13:48:33.683Z,0.60
2023-02-27T13:51:41.105Z,1.08
2023-02-27T13:54:29.522Z,0.95
2023-02-27T13:57:21.324Z,0.90
2023-02-27T14:00:24.677Z,0.52
2023-02-27T14:03:21.996Z,0.33
2023-02-27T14:06:10.955Z,0.50
2023-02-27T14:09:12.537Z,0.40
2023-02-27T14:12:03.042Z,0.43
2023-02-27T14:14:50.255Z,0.60
2023-02-27T14:17:38.557Z,0.70
2023-02-27T14:20:24.195Z,0.88
2023-02-27T14:23:15.648Z,0.40
2023-02-27T14:26:15.498Z,0.45
2023-02-27T14:29:01.052Z,0.40
2023-02-27T14:31:47.684Z,0.40
2023-02-27T14:34:35.934Z,0.45
2023-02-27T14:37:25.709Z,0.50
2023-02-27T14:40:29.687Z,0.30
2023-02-27T14:43:32.510Z,0.60
2023-02-27T14:46:26.631Z,0.50
2023-02-27T14:49:22.972Z,0.32
2023-02-27T14:52:25.698Z,0.60
2023-02-27T14:55:27.861Z,0.40
2023-02-27T14:58:17.568Z,0.90
2023-02-27T15:01:08.654Z,0.40
2023-02-27T15:03:57.521Z,0.30
2023-02-27T15:06:45.595Z,0.50
2023-02-27T15:09:44.433Z,0.45
2023-02-27T15:12:30.826Z,1.60
2023-02-27T15:15:21.673Z,0.40
2023-02-27T15:18:13.709Z,0.38
2023-02-27T15:20:59.169Z,0.40
2023-02-27T15:23:52.910Z,0.70
2023-02-27T15:26:40.339Z,0.30
2023-02-27T15:29:34.659Z,0.30
2023-02-27T15:32:32.514Z,0.70
2023-02-27T15:35:22.408Z,0.40
2023-02-27T15:38:23.205Z,0.98
2023-02-27T15:41:12.547Z,1.05
2023-02-27T15:43:58.828Z,0.83
2023-02-27T15:46:45.158Z,1.05
2023-02-27T15:49:30.458Z,4.15
2023-02-27T15:52:22.302Z,3.05
2023-02-27T15:55:14.465Z,1.83
2023-02-27T15:58:03.364Z,0.70
2023-02-27T16:00:50.346Z,0.50
2023-02-27T16:03:44.673Z,0.77
2023-02-27T16:06:33.237Z,0.40
2023-02-27T16:09:22.882Z,0.65
2023-02-27T16:12:31.620Z,0.90
2023-02-27T16:15:32.891Z,0.50
2023-02-27T16:18:17.914Z,0.70
2023-02-27T16:21:26.414Z,0.75
2023-02-27T16:24:21.720Z,1.10
2023-02-27T16:27:15.813Z,1.13
2023-02-27T16:30:02.397Z,1.25
2023-02-27T16:32:48.046Z,1.70
2023-02-27T16:35:35.270Z,0.93
2023-02-27T16:38:20.260Z,1.10
2023-02-27T16:41:05.529Z,1.00
2023-02-27T16:43:52.738Z,0.80
2023-02-27T16:46:37.508Z,0.65
2023-02-27T16:49:33.469Z,1.13
2023-02-27T16:52:18.770Z,1.40
2023-02-27T16:55:03.757Z,1.03
2023-02-27T16:57:48.668Z,1.10
2023-02-27T17:00:36.738Z,2.83
2023-02-27T17:03:22.073Z,0.60
2023-02-27T17:06:08.248Z,2.83
2023-02-27T17:08:53.268Z,2.27
2023-02-27T17:11:38.360Z,1.58
2023-02-27T17:14:24.286Z,3.38
2023-02-27T17:17:11.249Z,2.70
2023-02-27T17:19:57.002Z,2.08
2023-02-27T17:22:43.842Z,1.83
2023-02-27T17:25:29.757Z,2.33
2023-02-27T17:28:14.954Z,2.10
2023-02-27T17:31:00.069Z,1.95
2023-02-27T17:33:45.131Z,1.65
2023-02-27T17:36:30.827Z,1.63
2023-02-27T17:39:15.948Z,2.25
2023-02-27T17:42:00.743Z,3.17
2023-02-27T17:44:46.456Z,1.30
2023-02-27T17:47:31.642Z,1.00
2023-02-27T17:50:16.901Z,0.87
2023-02-27T17:53:01.699Z,1.20
2023-02-27T17:55:46.527Z,1.83
2023-02-27T17:58:32.298Z,1.17
2023-02-27T18:01:21.516Z,1.40
2023-02-27T18:04:07.862Z,1.90
2023-02-27T18:06:53.318Z,2.20
2023-02-27T18:09:38.852Z,2.13
2023-02-27T18:12:25.222Z,1.90
2023-02-27T18:15:10.360Z,1.38
2023-02-27T18:17:55.642Z,1.93
2023-02-27T18:20:40.932Z,1.33
2023-02-27T18:23:25.804Z,2.40
2023-02-27T18:26:28.566Z,2.15
2023-02-27T18:29:17.647Z,1.63
2023-02-27T18:32:03.081Z,0.50
2023-02-27T18:34:48.107Z,1.30
2023-02-27T18:37:33.144Z,1.10
2023-02-27T18:40:23.023Z,1.88
2023-02-27T18:43:09.256Z,2.60
2023-02-27T18:45:54.355Z,2.33
2023-02-27T18:48:40.416Z,1.75
2023-02-27T18:51:25.981Z,1.65
2023-02-27T18:54:12.987Z,0.80
2023-02-27T18:57:00.516Z,1.05
2023-02-27T18:59:47.359Z,1.07
2023-02-27T19:02:32.582Z,1.08
2023-02-27T19:05:17.483Z,1.08
2023-02-27T19:08:02.522Z,1.33
2023-02-27T19:10:47.373Z,1.23
2023-02-27T19:13:32.583Z,0.83
2023-02-27T19:16:17.724Z,1.20
2023-02-27T19:19:04.732Z,1.38
2023-02-27T19:21:49.730Z,1.25
2023-02-27T19:24:35.005Z,1.40
2023-02-27T19:27:20.072Z,1.63
2023-02-27T19:30:07.934Z,1.40
2023-02-27T19:32:53.998Z,1.40
2023-02-27T19:35:39.122Z,1.17
2023-02-27T19:38:23.855Z,1.60
2023-02-27T19:41:11.521Z,1.60
2023-02-27T19:43:56.527Z,1.58
2023-02-27T19:46:42.062Z,1.95
2023-02-27T19:49:27.228Z,1.65
2023-02-27T19:52:13.085Z,1.45
2023-02-27T19:54:57.885Z,1.70
2023-02-27T19:57:42.673Z,1.50
2023-02-27T20:00:27.631Z,1.75
2023-02-27T20:03:12.655Z,2.05
2023-02-27T20:05:57.709Z,1.60
2023-02-27T20:08:42.761Z,1.30
2023-02-27T20:11:31.574Z,1.80
2023-02-27T20:14:17.181Z,1.20
2023-02-27T20:17:02.607Z,1.05
2023-02-27T20:19:48.026Z,1.45
2023-02-27T20:22:33.169Z,1.40
2023-02-27T20:25:18.438Z,1.98
2023-02-27T20:28:03.889Z,10.60
2023-02-27T20:30:49.058Z,3.20
2023-02-27T20:33:34.058Z,2.13
2023-02-27T20:36:19.001Z,1.57
2023-02-27T20:39:05.924Z,1.90
2023-02-27T20:41:50.857Z,2.10
2023-02-27T20:44:36.477Z,2.20
2023-02-27T20:47:21.362Z,2.88
2023-02-27T20:50:07.053Z,2.30
2023-02-27T20:52:55.060Z,4.97
2023-02-27T20:55:48.256Z,2.95
2023-02-27T20:58:33.893Z,2.80
2023-02-27T21:01:19.504Z,2.72
2023-02-27T21:04:04.854Z,2.63
2023-02-27T21:06:50.388Z,2.85
2023-02-27T21:09:35.293Z,2.20
2023-02-27T21:12:20.181Z,2.70
2023-02-27T21:15:06.022Z,4.05
2023-02-27T21:17:51.143Z,3.03
2023-02-27T21:20:39.422Z,5.50
2023-02-27T21:23:24.308Z,3.58
2023-02-27T21:26:15.587Z,3.45
2023-02-27T21:29:05.050Z,3.00
2023-02-27T21:31:51.471Z,2.33
2023-02-27T21:34:36.767Z,2.40
2023-02-27T21:37:21.523Z,2.30
2023-02-27T21:40:07.250Z,1.45
2023-02-27T21:42:53.434Z,2.28
2023-02-27T21:45:43.821Z,1.70
2023-02-27T21:48:28.933Z,2.47
2023-02-27T21:51:13.956Z,2.70
2023-02-27T21:54:01.917Z,3.55
2023-02-27T21:56:48.279Z,2.40
2023-02-27T21:59:33.396Z,2.67
2023-02-27T22:02:18.247Z,1.80
2023-02-27T22:05:03.164Z,1.85
2023-02-27T22:07:49.040Z,2.15
2023-02-27T22:10:47.500Z,2.13
2023-02-27T22:13:34.202Z,1.23
2023-02-27T22:16:19.538Z,1.95
2023-02-27T22:19:10.573Z,1.73
2023-02-27T22:21:55.554Z,1.77
2023-02-27T22:24:41.926Z,1.90
2023-02-27T22:27:27.098Z,1.90
2023-02-27T22:30:12.645Z,1.63
2023-02-27T22:32:57.436Z,2.28
2023-02-27T22:35:42.540Z,2.42
2023-02-27T22:38:28.586Z,2.13
2023-02-27T22:41:17.160Z,2.20
2023-02-27T22:44:04.230Z,3.00
2023-02-27T22:46:50.014Z,2.50
2023-02-27T22:49:34.883Z,1.85
2023-02-27T22:52:19.773Z,2.28
2023-02-27T22:55:05.411Z,2.00
2023-02-27T22:57:51.682Z,2.65
2023-02-27T23:00:36.583Z,2.45
2023-02-27T23:03:21.366Z,2.53
2023-02-27T23:06:08.497Z,2.58
2023-02-27T23:08:53.228Z,2.70
2023-02-27T23:11:38.746Z,2.70
2023-02-27T23:14:23.786Z,1.88
2023-02-27T23:17:09.067Z,2.58
2023-02-27T23:19:53.986Z,2.55
2023-02-27T23:22:38.986Z,2.40
2023-02-27T23:25:23.845Z,2.25
2023-02-27T23:28:08.890Z,3.20
2023-02-27T23:30:53.879Z,2.88
2023-02-27T23:33:38.995Z,2.70
2023-02-27T23:36:24.062Z,2.13
2023-02-27T23:39:08.969Z,2.20
2023-02-27T23:41:53.879Z,3.03
2023-02-27T23:44:39.060Z,2.60
2023-02-27T23:47:42.794Z,2.58
2023-02-27T23:50:35.974Z,2.47
2023-02-27T23:53:20.889Z,2.45
2023-02-27T23:56:27.898Z,1.88
2023-02-27T23:59:13.188Z,1.60
